createdAt,value
2022-11-05T00:00:38.243Z,79.93
2022-11-05T00:03:28.705Z,80.04
2022-11-05T00:06:14.913Z,79.68
2022-11-05T00:09:14.775Z,80.56
2022-11-05T00:12:01.024Z,80.37
2022-11-05T00:14:47.732Z,82.05
2022-11-05T00:17:15.409Z,81.85
2022-11-05T00:19:43.111Z,81.12
2022-11-05T00:22:29.469Z,81.46
2022-11-05T00:25:18.375Z,82.64
2022-11-05T00:27:52.171Z,82.15
2022-11-05T00:30:25.447Z,82.97
2022-11-05T00:32:53.105Z,82.59
2022-11-05T00:35:22.290Z,82.60
2022-11-05T00:37:50.702Z,82.87
2022-11-05T00:40:19.920Z,82.43
2022-11-05T00:43:06.325Z,82.86
2022-11-05T00:45:33.961Z,82.75
2022-11-05T00:48:20.126Z,82.36
2022-11-05T00:50:47.844Z,82.59
2022-11-05T00:53:15.586Z,82.27
2022-11-05T00:55:46.013Z,82.06
2022-11-05T00:58:17.383Z,81.98
2022-11-05T01:00:52.940Z,81.90
2022-11-05T01:03:24.191Z,82.46
2022-11-05T01:05:59.214Z,81.79
2022-11-05T01:08:28.220Z,82.21
2022-11-05T01:10:57.527Z,82.16
2022-11-05T01:13:30.280Z,82.09
2022-11-05T01:15:57.977Z,81.99
2022-11-05T01:18:25.609Z,81.42
2022-11-05T01:20:53.331Z,81.60
2022-11-05T01:23:21.493Z,81.84
2022-11-05T01:25:49.393Z,81.64
2022-11-05T01:28:17.078Z,81.90
2022-11-05T01:30:44.835Z,81.84
2022-11-05T01:33:12.906Z,81.56
2022-11-05T01:35:40.704Z,81.32
2022-11-05T01:38:08.749Z,80.94
2022-11-05T01:40:36.393Z,81.42
2022-11-05T01:43:14.410Z,81.33
2022-11-05T01:45:42.984Z,81.49
2022-11-05T01:48:18.738Z,81.29
2022-11-05T01:50:49.344Z,81.32
2022-11-05T01:53:48.190Z,81.18
2022-11-05T01:56:26.213Z,81.46
2022-11-05T01:59:06.752Z,81.60
2022-11-05T02:01:34.549Z,81.51
2022-11-05T02:04:07.237Z,81.70
2022-11-05T02:06:38.994Z,81.70
2022-11-05T02:09:11.419Z,81.88
2022-11-05T02:11:39.084Z,81.92
2022-11-05T02:14:08.885Z,81.76
2022-11-05T02:16:42.204Z,82.11
2022-11-05T02:19:28.325Z,82.50
2022-11-05T02:22:24.949Z,82.60
2022-11-05T02:25:11.001Z,82.32
2022-11-05T02:27:41.451Z,82.64
2022-11-05T02:30:37.073Z,82.82
2022-11-05T02:33:43.256Z,83.47
2022-11-05T02:36:17.107Z,83.26
2022-11-05T02:38:59.485Z,83.51
2022-11-05T02:42:17.961Z,83.88
2022-11-05T02:45:22.625Z,83.76
2022-11-05T02:47:55.665Z,83.58
2022-11-05T02:50:51.252Z,83.10
2022-11-05T02:53:38.042Z,83.61
2022-11-05T02:56:13.321Z,83.67
2022-11-05T02:58:41.639Z,83.72
2022-11-05T03:01:12.497Z,83.88
2022-11-05T03:04:01.020Z,83.93
2022-11-05T03:06:41.286Z,83.99
2022-11-05T03:09:20.934Z,83.77
2022-11-05T03:12:13.265Z,83.68
2022-11-05T03:15:03.339Z,84.01
2022-11-05T03:17:43.146Z,84.07
2022-11-05T03:20:26.272Z,84.32
2022-11-05T03:23:12.714Z,84.05
2022-11-05T03:25:47.293Z,84.21
2022-11-05T03:28:15.331Z,84.13
2022-11-05T03:30:44.984Z,84.65
2022-11-05T03:33:19.097Z,85.27
2022-11-05T03:35:51.760Z,85.24
2022-11-05T03:38:25.505Z,84.71
2022-11-05T03:40:57.149Z,84.33
2022-11-05T03:43:29.547Z,84.41
2022-11-05T03:46:02.522Z,84.42
2022-11-05T03:48:32.920Z,85.03
2022-11-05T03:51:25.465Z,84.66
2022-11-05T03:53:57.663Z,84.60
2022-11-05T03:56:38.250Z,85.01
2022-11-05T03:59:09.349Z,84.66
2022-11-05T04:01:38.846Z,84.61
2022-11-05T04:04:06.977Z,84.52
2022-11-05T04:06:53.639Z,84.77
2022-11-05T04:09:39.815Z,84.79
2022-11-05T04:12:28.659Z,84.93
2022-11-05T04:14:56.993Z,84.55
2022-11-05T04:17:24.760Z,84.63
2022-11-05T04:20:10.792Z,84.72
2022-11-05T04:22:57.263Z,84.42
2022-11-05T04:25:24.986Z,84.19
2022-11-05T04:27:53.467Z,84.87
2022-11-05T04:30:23.965Z,85.53
2022-11-05T04:33:05.641Z,85.80
2022-11-05T04:35:36.476Z,85.74
2022-11-05T04:38:05.851Z,85.21
2022-11-05T04:40:34.052Z,85.07
2022-11-05T04:43:02.150Z,85.07
2022-11-05T04:45:34.348Z,85.16
2022-11-05T04:48:03.931Z,84.96
2022-11-05T04:50:32.633Z,84.97
2022-11-05T04:53:01.016Z,85.35
2022-11-05T04:55:28.954Z,85.78
2022-11-05T04:57:56.651Z,85.36
2022-11-05T05:00:25.051Z,85.51
2022-11-05T05:02:52.731Z,86.17
2022-11-05T05:05:22.593Z,86.39
2022-11-05T05:07:50.292Z,87.20
2022-11-05T05:10:18.054Z,87.20
2022-11-05T05:12:45.691Z,87.05
2022-11-05T05:15:13.514Z,87.27
2022-11-05T05:17:41.224Z,87.35
2022-11-05T05:20:27.671Z,87.87
2022-11-05T05:22:56.055Z,88.35
2022-11-05T05:25:23.961Z,87.98
2022-11-05T05:27:51.837Z,88.03
2022-11-05T05:30:19.494Z,88.06
2022-11-05T05:32:47.236Z,88.64
2022-11-05T05:35:14.891Z,88.10
2022-11-05T05:37:43.157Z,87.75
2022-11-05T05:40:11.300Z,87.95
2022-11-05T05:42:42.942Z,88.27
2022-11-05T05:45:12.356Z,88.61
2022-11-05T05:47:40.140Z,88.55
2022-11-05T05:50:08.175Z,88.51
2022-11-05T05:52:35.850Z,88.45
2022-11-05T05:55:03.850Z,88.35
2022-11-05T05:57:31.560Z,88.78
2022-11-05T06:00:00.952Z,88.59
2022-11-05T06:02:31.020Z,88.60
2022-11-05T06:04:58.738Z,88.40
2022-11-05T06:07:26.925Z,88.70
2022-11-05T06:09:54.611Z,88.16
2022-11-05T06:12:22.321Z,88.08
2022-11-05T06:14:49.924Z,88.63
2022-11-05T06:17:17.603Z,88.45
2022-11-05T06:19:45.264Z,88.41
2022-11-05T06:22:12.945Z,88.99
2022-11-05T06:24:40.561Z,88.75
2022-11-05T06:27:08.237Z,88.14
2022-11-05T06:29:35.849Z,88.03
2022-11-05T06:32:03.668Z,87.60
2022-11-05T06:34:31.303Z,87.76
2022-11-05T06:36:59.686Z,88.56
2022-11-05T06:39:27.373Z,88.55
2022-11-05T06:42:17.120Z,88.13
2022-11-05T06:44:42.631Z,88.04
2022-11-05T06:47:11.258Z,87.65
2022-11-05T06:49:38.941Z,87.68
2022-11-05T06:52:06.654Z,87.53
2022-11-05T06:54:34.289Z,87.58
2022-11-05T06:57:02.025Z,87.65
2022-11-05T06:59:29.973Z,87.70
2022-11-05T07:01:57.768Z,87.78
2022-11-05T07:04:25.463Z,87.62
2022-11-05T07:06:53.109Z,87.59
2022-11-05T07:09:20.734Z,87.89
2022-11-05T07:11:48.372Z,87.47
2022-11-05T07:14:16.067Z,87.24
2022-11-05T07:16:44.020Z,87.45
2022-11-05T07:19:11.810Z,87.81
2022-11-05T07:21:39.594Z,87.64
2022-11-05T07:24:07.804Z,87.58
2022-11-05T07:26:35.548Z,87.42
2022-11-05T07:29:03.846Z,86.98
2022-11-05T07:31:31.615Z,86.92
2022-11-05T07:33:59.439Z,87.12
2022-11-05T07:36:27.052Z,86.86
2022-11-05T07:38:59.938Z,87.10
2022-11-05T07:41:29.390Z,87.24
2022-11-05T07:43:57.568Z,87.05
2022-11-05T07:46:25.280Z,86.74
2022-11-05T07:48:52.996Z,86.38
2022-11-05T07:51:20.658Z,86.41
2022-11-05T07:53:48.593Z,86.33
2022-11-05T07:56:16.557Z,86.64
2022-11-05T07:58:44.502Z,86.62
2022-11-05T08:01:12.305Z,86.80
2022-11-05T08:03:40.269Z,86.80
2022-11-05T08:06:08.183Z,86.42
2022-11-05T08:08:35.933Z,85.88
2022-11-05T08:11:08.334Z,85.88
2022-11-05T08:13:36.749Z,85.93
2022-11-05T08:16:05.857Z,85.93
2022-11-05T08:18:34.649Z,86.35
2022-11-05T08:21:04.738Z,86.36
2022-11-05T08:23:32.835Z,86.14
2022-11-05T08:26:02.940Z,85.85
2022-11-05T08:28:31.150Z,85.52
2022-11-05T08:30:58.913Z,85.17
2022-11-05T08:33:27.541Z,85.76
2022-11-05T08:35:55.248Z,85.93
2022-11-05T08:38:23.685Z,85.82
2022-11-05T08:40:57.419Z,85.56
2022-11-05T08:43:26.487Z,85.76
2022-11-05T08:45:55.051Z,85.37
2022-11-05T08:48:22.865Z,85.25
2022-11-05T08:50:50.646Z,85.17
2022-11-05T08:53:18.763Z,85.34
2022-11-05T08:55:47.745Z,85.50
2022-11-05T08:58:17.024Z,85.15
2022-11-05T09:00:47.561Z,84.87
2022-11-05T09:03:18.626Z,84.62
2022-11-05T09:05:47.263Z,84.58
2022-11-05T09:08:18.239Z,84.47
2022-11-05T09:10:47.872Z,84.62
2022-11-05T09:13:19.461Z,85.06
2022-11-05T09:15:49.270Z,85.27
2022-11-05T09:18:18.870Z,84.99
2022-11-05T09:20:47.810Z,84.66
2022-11-05T09:23:16.157Z,84.57
2022-11-05T09:25:45.329Z,84.51
2022-11-05T09:28:18.948Z,84.33
2022-11-05T09:30:48.914Z,84.64
2022-11-05T09:33:18.957Z,84.70
2022-11-05T09:35:47.159Z,84.62
2022-11-05T09:38:15.094Z,84.33
2022-11-05T09:40:57.954Z,84.27
2022-11-05T09:43:38.317Z,84.12
2022-11-05T09:46:17.357Z,83.90
2022-11-05T09:48:49.790Z,84.33
2022-11-05T09:51:23.728Z,84.63
2022-11-05T09:53:53.619Z,84.71
2022-11-05T09:56:21.309Z,84.56
2022-11-05T09:58:54.876Z,84.18
2022-11-05T10:01:28.187Z,84.08
2022-11-05T10:03:59.685Z,83.79
2022-11-05T10:06:28.431Z,84.03
2022-11-05T10:09:07.974Z,83.76
2022-11-05T10:11:41.969Z,84.26
2022-11-05T10:14:22.787Z,84.55
2022-11-05T10:16:57.991Z,84.83
2022-11-05T10:19:48.159Z,84.55
2022-11-05T10:22:18.200Z,84.50
2022-11-05T10:24:50.735Z,84.15
2022-11-05T10:27:24.197Z,84.14
2022-11-05T10:29:52.921Z,84.07
2022-11-05T10:32:28.381Z,84.32
2022-11-05T10:34:59.714Z,84.93
2022-11-05T10:37:28.679Z,85.12
2022-11-05T10:39:56.513Z,84.93
2022-11-05T10:42:30.186Z,84.72
2022-11-05T10:45:06.891Z,84.75
2022-11-05T10:47:58.807Z,84.66
2022-11-05T10:50:29.575Z,84.84
2022-11-05T10:53:01.050Z,85.39
2022-11-05T10:55:32.696Z,85.45
2022-11-05T10:58:31.238Z,85.64
2022-11-05T11:00:59.118Z,85.56
2022-11-05T11:03:47.093Z,85.68
2022-11-05T11:06:24.522Z,86.08
2022-11-05T11:08:55.761Z,86.78
2022-11-05T11:11:29.109Z,86.82
2022-11-05T11:13:56.784Z,87.29
2022-11-05T11:16:26.821Z,86.82
2022-11-05T11:18:58.453Z,86.44
2022-11-05T11:21:28.261Z,86.64
2022-11-05T11:24:03.766Z,86.91
2022-11-05T11:26:40.191Z,87.19
2022-11-05T11:29:17.960Z,87.66
2022-11-05T11:31:45.994Z,87.41
2022-11-05T11:34:27.655Z,87.32
2022-11-05T11:37:19.195Z,87.21
2022-11-05T11:39:52.413Z,87.29
2022-11-05T11:42:32.225Z,87.41
2022-11-05T11:45:05.848Z,87.38
2022-11-05T11:47:33.759Z,87.51
2022-11-05T11:50:02.679Z,87.37
2022-11-05T11:52:33.565Z,87.25
2022-11-05T11:55:21.098Z,86.85
2022-11-05T11:58:07.055Z,87.36
2022-11-05T12:00:41.803Z,87.58
2022-11-05T12:03:41.490Z,87.67
2022-11-05T12:06:47.449Z,87.73
2022-11-05T12:09:25.862Z,87.11
2022-11-05T12:12:13.294Z,87.06
2022-11-05T12:14:53.021Z,87.28
2022-11-05T12:17:50.569Z,87.61
2022-11-05T12:20:38.597Z,87.74
2022-11-05T12:23:53.832Z,87.86
2022-11-05T12:26:57.250Z,87.81
2022-11-05T12:29:46.008Z,87.81
2022-11-05T12:32:38.873Z,87.35
2022-11-05T12:35:44.123Z,87.74
2022-11-05T12:38:58.900Z,87.78
2022-11-05T12:41:40.562Z,87.65
2022-11-05T12:44:20.094Z,88.03
2022-11-05T12:47:09.377Z,87.79
2022-11-05T12:49:46.374Z,87.70
2022-11-05T12:52:49.037Z,88.23
2022-11-05T12:55:20.540Z,88.98
2022-11-05T12:57:52.309Z,88.69
2022-11-05T13:00:26.081Z,88.52
2022-11-05T13:03:22.157Z,88.43
2022-11-05T13:06:05.506Z,88.20
2022-11-05T13:08:37.758Z,88.71
2022-11-05T13:11:17.529Z,88.35
2022-11-05T13:14:10.201Z,88.43
2022-11-05T13:16:43.408Z,88.35
2022-11-05T13:19:19.080Z,88.31
2022-11-05T13:21:50.782Z,87.93
2022-11-05T13:24:31.089Z,87.91
2022-11-05T13:27:11.046Z,87.46
2022-11-05T13:29:47.463Z,87.69
2022-11-05T13:32:31.245Z,87.88
2022-11-05T13:35:02.549Z,87.93
2022-11-05T13:38:00.134Z,87.92
2022-11-05T13:40:45.272Z,87.56
2022-11-05T13:43:52.288Z,87.60
2022-11-05T13:46:32.041Z,87.92
2022-11-05T13:49:21.594Z,88.04
2022-11-05T13:51:56.117Z,88.44
2022-11-05T13:54:42.880Z,88.08
2022-11-05T13:57:35.140Z,87.94
2022-11-05T14:00:20.139Z,88.50
2022-11-05T14:03:04.478Z,87.75
2022-11-05T14:05:36.019Z,87.98
2022-11-05T14:08:20.032Z,88.28
2022-11-05T14:11:28.230Z,88.62
2022-11-05T14:14:01.211Z,88.24
2022-11-05T14:16:47.537Z,88.00
2022-11-05T14:19:18.240Z,87.91
2022-11-05T14:21:59.110Z,87.73
2022-11-05T14:24:28.313Z,87.95
2022-11-05T14:27:02.040Z,88.32
2022-11-05T14:29:46.343Z,88.37
2022-11-05T14:32:17.049Z,88.29
2022-11-05T14:34:44.699Z,88.33
2022-11-05T14:37:12.549Z,88.11
2022-11-05T14:39:41.247Z,88.20
2022-11-05T14:42:22.290Z,88.19
2022-11-05T14:45:10.248Z,88.10
2022-11-05T14:47:41.069Z,88.17
2022-11-05T14:50:26.752Z,88.25
2022-11-05T14:52:57.433Z,87.77
2022-11-05T14:55:29.564Z,87.68
2022-11-05T14:57:57.156Z,87.99
2022-11-05T15:00:40.702Z,88.29
2022-11-05T15:03:33.394Z,88.35
2022-11-05T15:06:22.451Z,88.15
2022-11-05T15:08:50.053Z,88.00
2022-11-05T15:11:20.587Z,88.02
2022-11-05T15:13:54.250Z,88.28
2022-11-05T15:16:25.114Z,88.33
2022-11-05T15:18:55.422Z,88.28
2022-11-05T15:21:24.944Z,88.06
2022-11-05T15:23:58.961Z,87.92
2022-11-05T15:27:09.464Z,87.87
2022-11-05T15:29:37.763Z,87.95
2022-11-05T15:32:05.651Z,88.22
2022-11-05T15:34:35.756Z,88.42
2022-11-05T15:37:23.499Z,88.60
2022-11-05T15:39:55.831Z,88.51
2022-11-05T15:42:27.125Z,88.39
2022-11-05T15:45:00.031Z,88.28
2022-11-05T15:47:34.446Z,88.14
2022-11-05T15:50:14.061Z,88.76
2022-11-05T15:52:51.764Z,89.22
2022-11-05T15:55:24.142Z,89.05
2022-11-05T15:58:06.382Z,89.24
2022-11-05T16:00:36.649Z,89.28
2022-11-05T16:03:18.972Z,89.56
2022-11-05T16:05:48.656Z,89.71
2022-11-05T16:08:21.811Z,89.43
2022-11-05T16:10:53.318Z,89.50
2022-11-05T16:13:41.479Z,89.36
2022-11-05T16:16:15.405Z,89.39
2022-11-05T16:18:45.290Z,89.55
2022-11-05T16:21:18.939Z,89.53
2022-11-05T16:23:55.758Z,89.55
2022-11-05T16:29:39.230Z,89.87
2022-11-05T16:32:17.215Z,89.53
2022-11-05T16:34:53.796Z,89.88
2022-11-05T16:37:25.012Z,90.21
2022-11-05T16:39:53.867Z,89.98
2022-11-05T16:42:24.787Z,90.16
2022-11-05T16:44:55.101Z,90.22
2022-11-05T16:47:23.425Z,90.18
2022-11-05T16:49:51.577Z,90.09
2022-11-05T16:52:19.807Z,90.02
2022-11-05T16:54:47.932Z,90.15
2022-11-05T16:57:27.287Z,90.19
2022-11-05T16:59:56.976Z,90.40
2022-11-05T17:02:25.785Z,90.22
2022-11-05T17:04:53.912Z,90.35
2022-11-05T17:07:21.689Z,90.08
2022-11-05T17:09:50.580Z,90.18
2022-11-05T17:12:18.393Z,90.36
2022-11-05T17:14:46.197Z,90.40
2022-11-05T17:17:14.937Z,90.35
2022-11-05T17:19:42.923Z,90.45
2022-11-05T17:22:13.858Z,90.69
2022-11-05T17:24:41.680Z,90.65
2022-11-05T17:27:09.634Z,90.73
2022-11-05T17:29:37.786Z,90.89
2022-11-05T17:32:06.022Z,90.62
2022-11-05T17:34:34.143Z,90.81
2022-11-05T17:37:02.122Z,90.80
2022-11-05T17:39:31.786Z,90.53
2022-11-05T17:42:00.030Z,90.40
2022-11-05T17:44:29.969Z,90.52
2022-11-05T17:46:57.706Z,90.64
2022-11-05T17:49:25.510Z,90.74
2022-11-05T17:51:53.749Z,90.82
2022-11-05T17:54:21.803Z,91.16
2022-11-05T17:56:54.875Z,90.88
2022-11-05T17:59:22.713Z,91.17
2022-11-05T18:01:51.687Z,91.21
2022-11-05T18:04:19.572Z,91.42
2022-11-05T18:06:47.662Z,91.23
2022-11-05T18:09:15.548Z,91.27
2022-11-05T18:11:43.949Z,91.05
2022-11-05T18:14:11.936Z,91.02
2022-11-05T18:16:39.886Z,91.20
2022-11-05T18:19:07.589Z,91.51
2022-11-05T18:21:35.313Z,91.39
2022-11-05T18:24:04.399Z,91.43
2022-11-05T18:26:33.117Z,91.35
2022-11-05T18:29:04.466Z,91.46
2022-11-05T18:31:32.459Z,91.55
2022-11-05T18:34:00.587Z,91.90
2022-11-05T18:36:30.881Z,91.99
2022-11-05T18:39:01.370Z,91.89
2022-11-05T18:41:29.506Z,91.84
2022-11-05T18:44:02.085Z,91.79
2022-11-05T18:46:56.452Z,92.20
2022-11-05T18:49:18.941Z,91.91
2022-11-05T18:51:46.601Z,91.72
2022-11-05T18:54:14.503Z,91.91
2022-11-05T18:56:45.613Z,91.86
2022-11-05T18:59:35.870Z,91.98
2022-11-05T19:02:05.800Z,91.94
2022-11-05T19:04:35.730Z,92.00
2022-11-05T19:07:05.415Z,91.96
2022-11-05T19:09:38.376Z,91.99
2022-11-05T19:12:07.858Z,91.83
2022-11-05T19:14:35.652Z,91.93
2022-11-05T19:17:03.463Z,91.82
2022-11-05T19:19:31.223Z,91.86
2022-11-05T19:21:59.040Z,91.76
2022-11-05T19:24:26.753Z,91.43
2022-11-05T19:26:54.515Z,91.68
2022-11-05T19:29:22.294Z,91.75
2022-11-05T19:31:50.053Z,91.78
2022-11-05T19:34:17.807Z,91.97
2022-11-05T19:36:45.474Z,91.89
2022-11-05T19:39:14.657Z,91.90
2022-11-05T19:41:42.638Z,91.58
2022-11-05T19:44:10.514Z,91.82
2022-11-05T19:46:38.465Z,91.60
2022-11-05T19:49:06.126Z,91.67
2022-11-05T19:51:33.961Z,91.96
2022-11-05T19:54:03.243Z,92.00
2022-11-05T19:56:33.703Z,92.04
2022-11-05T19:59:03.381Z,91.93
2022-11-05T20:01:31.447Z,91.79
2022-11-05T20:04:00.224Z,91.59
2022-11-05T20:06:32.265Z,91.47
2022-11-05T20:11:54.977Z,91.62
2022-11-05T20:14:24.748Z,91.83
2022-11-05T20:16:53.702Z,91.65
2022-11-05T20:19:22.984Z,91.44
2022-11-05T20:21:50.707Z,91.49
2022-11-05T20:24:24.850Z,91.48
2022-11-05T20:26:54.910Z,91.52
2022-11-05T20:29:23.653Z,91.62
2022-11-05T20:31:53.436Z,91.58
2022-11-05T20:34:21.113Z,91.66
2022-11-05T20:36:48.742Z,91.57
2022-11-05T20:39:18.279Z,91.53
2022-11-05T20:41:45.840Z,91.54
2022-11-05T20:44:13.850Z,91.43
2022-11-05T20:46:41.601Z,91.24
2022-11-05T20:49:09.345Z,91.29
2022-11-05T20:51:37.114Z,91.56
2022-11-05T20:54:05.347Z,91.57
2022-11-05T20:56:37.045Z,91.55
2022-11-05T20:59:05.501Z,91.73
2022-11-05T21:01:34.631Z,91.60
2022-11-05T21:04:03.293Z,91.37
2022-11-05T21:06:31.612Z,91.30
2022-11-05T21:08:59.437Z,91.08
2022-11-05T21:11:27.414Z,91.01
2022-11-05T21:13:55.082Z,91.10
2022-11-05T21:16:22.795Z,91.14
2022-11-05T21:18:50.566Z,91.51
2022-11-05T21:21:20.443Z,91.40
2022-11-05T21:23:48.396Z,91.50
2022-11-05T21:26:18.035Z,91.37
2022-11-05T21:28:45.871Z,91.56
2022-11-05T21:31:13.743Z,91.21
2022-11-05T21:33:41.570Z,90.92
2022-11-05T21:36:12.382Z,90.83
2022-11-05T21:38:41.353Z,91.19
2022-11-05T21:41:11.493Z,91.43
2022-11-05T21:43:41.752Z,91.28
2022-11-05T21:46:12.115Z,91.38
2022-11-05T21:48:39.849Z,91.31
2022-11-05T21:51:26.217Z,91.38
2022-11-05T21:54:12.675Z,91.41
2022-11-05T21:56:59.141Z,91.19
2022-11-05T21:59:45.586Z,90.79
2022-11-05T22:02:22.476Z,91.03
2022-11-05T22:04:54.837Z,91.05
2022-11-05T22:07:25.364Z,91.02
2022-11-05T22:09:53.505Z,91.30
2022-11-05T22:12:21.593Z,91.27
2022-11-05T22:14:49.354Z,91.48
2022-11-05T22:17:18.303Z,91.39
2022-11-05T22:19:45.988Z,91.32
2022-11-05T22:22:14.173Z,90.95
2022-11-05T22:24:42.584Z,90.84
2022-11-05T22:27:16.251Z,90.76
2022-11-05T22:29:44.162Z,91.03
2022-11-05T22:32:12.122Z,91.23
2022-11-05T22:34:40.057Z,91.37
2022-11-05T22:37:07.863Z,91.07
2022-11-05T22:39:35.562Z,91.09
2022-11-05T22:42:08.269Z,91.04
2022-11-05T22:44:36.767Z,90.89
2022-11-05T22:47:05.520Z,91.30
2022-11-05T22:49:33.979Z,91.29
2022-11-05T22:52:02.259Z,91.37
2022-11-05T22:54:32.714Z,91.22
2022-11-05T22:57:03.191Z,91.20
2022-11-05T22:59:30.873Z,90.76
2022-11-05T23:01:58.665Z,91.03
2022-11-05T23:04:26.904Z,91.23
2022-11-05T23:07:13.045Z,91.19
2022-11-05T23:09:59.127Z,91.34
2022-11-05T23:12:33.111Z,91.38
2022-11-05T23:15:03.499Z,91.21
2022-11-05T23:17:50.314Z,90.91
2022-11-05T23:20:40.178Z,91.03
2022-11-05T23:23:30.848Z,90.78
2022-11-05T23:25:59.892Z,90.93
2022-11-05T23:28:27.527Z,90.98
2022-11-05T23:31:33.496Z,91.04
2022-11-05T23:34:01.112Z,91.47
2022-11-05T23:37:07.257Z,91.44
2022-11-05T23:39:41.184Z,91.25
2022-11-05T23:42:29.368Z,91.20
2022-11-05T23:45:15.718Z,90.69
2022-11-05T23:48:02.121Z,90.99
2022-11-05T23:50:35.431Z,90.69
2022-11-05T23:53:06.664Z,90.86
2022-11-05T23:55:34.641Z,90.88
2022-11-05T23:58:02.454Z,91.08
